sensor_id;sensor_type;location;lat;lon;timestamp;P1;durP1;ratioP1;P2;durP2;ratioP2
48665;SDS011;34452;50.796;4.994;2023-05-02T00:01:32;44.67;;;24.45;;
48665;SDS011;34452;50.796;4.994;2023-05-02T00:03:58;44.78;;;24.48;;
48665;SDS011;34452;50.796;4.994;2023-05-02T00:06:24;39.05;;;23.08;;
48665;SDS011;34452;50.796;4.994;2023-05-02T00:08:50;38.78;;;23.27;;
48665;SDS011;34452;50.796;4.994;2023-05-02T00:11:16;41.90;;;22.77;;
48665;SDS011;34452;50.796;4.994;2023-05-02T00:13:41;41.00;;;23.10;;
48665;SDS011;34452;50.796;4.994;2023-05-02T00:16:08;42.53;;;25.30;;
48665;SDS011;34452;50.796;4.994;2023-05-02T00:18:35;38.55;;;23.40;;
48665;SDS011;34452;50.796;4.994;2023-05-02T00:21:00;35.28;;;22.23;;
48665;SDS011;34452;50.796;4.994;2023-05-02T00:23:26;43.30;;;23.63;;
48665;SDS011;34452;50.796;4.994;2023-05-02T00:25:52;40.77;;;23.93;;
48665;SDS011;34452;50.796;4.994;2023-05-02T00:28:17;39.47;;;24.77;;
48665;SDS011;34452;50.796;4.994;2023-05-02T00:30:44;41.70;;;23.30;;
48665;SDS011;34452;50.796;4.994;2023-05-02T00:35:37;52.40;;;25.98;;
48665;SDS011;34452;50.796;4.994;2023-05-02T00:38:03;39.97;;;24.63;;
48665;SDS011;34452;50.796;4.994;2023-05-02T00:40:29;51.50;;;27.50;;
48665;SDS011;34452;50.796;4.994;2023-05-02T00:42:55;42.33;;;25.50;;
48665;SDS011;34452;50.796;4.994;2023-05-02T00:45:21;40.60;;;25.98;;
48665;SDS011;34452;50.796;4.994;2023-05-02T00:47:48;50.20;;;28.20;;
48665;SDS011;34452;50.796;4.994;2023-05-02T00:50:15;44.63;;;27.80;;
48665;SDS011;34452;50.796;4.994;2023-05-02T00:52:42;50.38;;;28.40;;
48665;SDS011;34452;50.796;4.994;2023-05-02T00:55:07;49.13;;;28.55;;
48665;SDS011;34452;50.796;4.994;2023-05-02T00:57:33;49.28;;;28.20;;
48665;SDS011;34452;50.796;4.994;2023-05-02T00:59:59;46.90;;;28.67;;
48665;SDS011;34452;50.796;4.994;2023-05-02T01:02:39;46.42;;;28.02;;
48665;SDS011;34452;50.796;4.994;2023-05-02T01:05:14;50.08;;;29.48;;
48665;SDS011;34452;50.796;4.994;2023-05-02T01:07:50;49.78;;;28.58;;
48665;SDS011;34452;50.796;4.994;2023-05-02T01:13:20;50.88;;;29.45;;
48665;SDS011;34452;50.796;4.994;2023-05-02T01:15:47;51.83;;;30.50;;
48665;SDS011;34452;50.796;4.994;2023-05-02T01:18:15;51.58;;;30.55;;
48665;SDS011;34452;50.796;4.994;2023-05-02T01:20:45;61.15;;;33.25;;
48665;SDS011;34452;50.796;4.994;2023-05-02T01:23:17;61.70;;;33.05;;
48665;SDS011;34452;50.796;4.994;2023-05-02T01:26:07;70.88;;;36.60;;
48665;SDS011;34452;50.796;4.994;2023-05-02T01:28:58;65.63;;;34.63;;
48665;SDS011;34452;50.796;4.994;2023-05-02T01:31:26;62.55;;;31.23;;
48665;SDS011;34452;50.796;4.994;2023-05-02T01:33:57;66.97;;;34.05;;
48665;SDS011;34452;50.796;4.994;2023-05-02T01:36:25;56.78;;;30.45;;
48665;SDS011;34452;50.796;4.994;2023-05-02T01:38:55;58.55;;;32.40;;
48665;SDS011;34452;50.796;4.994;2023-05-02T01:41:32;58.78;;;32.10;;
48665;SDS011;34452;50.796;4.994;2023-05-02T01:44:21;61.92;;;31.55;;
48665;SDS011;34452;50.796;4.994;2023-05-02T01:46:48;65.32;;;32.75;;
48665;SDS011;34452;50.796;4.994;2023-05-02T01:49:17;67.00;;;31.90;;
48665;SDS011;34452;50.796;4.994;2023-05-02T01:54:12;61.80;;;32.22;;
48665;SDS011;34452;50.796;4.994;2023-05-02T01:56:40;63.55;;;31.05;;
48665;SDS011;34452;50.796;4.994;2023-05-02T01:59:07;58.88;;;31.52;;
48665;SDS011;34452;50.796;4.994;2023-05-02T02:01:36;59.55;;;31.35;;
48665;SDS011;34452;50.796;4.994;2023-05-02T02:04:04;68.88;;;35.05;;
48665;SDS011;34452;50.796;4.994;2023-05-02T02:06:33;58.92;;;30.67;;
48665;SDS011;34452;50.796;4.994;2023-05-02T02:11:26;52.90;;;29.17;;
48665;SDS011;34452;50.796;4.994;2023-05-02T02:16:57;81.13;;;37.63;;
48665;SDS011;34452;50.796;4.994;2023-05-02T02:19:26;60.78;;;31.83;;
48665;SDS011;34452;50.796;4.994;2023-05-02T02:21:53;54.67;;;30.27;;
48665;SDS011;34452;50.796;4.994;2023-05-02T02:24:22;56.22;;;28.25;;
48665;SDS011;34452;50.796;4.994;2023-05-02T02:26:49;60.28;;;31.38;;
48665;SDS011;34452;50.796;4.994;2023-05-02T02:31:41;52.10;;;27.33;;
48665;SDS011;34452;50.796;4.994;2023-05-02T02:34:07;51.33;;;28.92;;
48665;SDS011;34452;50.796;4.994;2023-05-02T02:36:35;50.70;;;26.23;;
48665;SDS011;34452;50.796;4.994;2023-05-02T02:44:48;56.63;;;27.17;;
48665;SDS011;34452;50.796;4.994;2023-05-02T02:47:47;50.67;;;28.02;;
48665;SDS011;34452;50.796;4.994;2023-05-02T02:50:23;48.58;;;28.50;;
48665;SDS011;34452;50.796;4.994;2023-05-02T02:55:30;50.70;;;27.38;;
48665;SDS011;34452;50.796;4.994;2023-05-02T02:58:30;56.05;;;28.45;;
48665;SDS011;34452;50.796;4.994;2023-05-02T03:01:33;51.22;;;26.85;;
48665;SDS011;34452;50.796;4.994;2023-05-02T03:04:04;51.47;;;26.80;;
48665;SDS011;34452;50.796;4.994;2023-05-02T03:06:33;53.42;;;28.75;;
48665;SDS011;34452;50.796;4.994;2023-05-02T03:08:58;57.33;;;30.75;;
48665;SDS011;34452;50.796;4.994;2023-05-02T03:11:24;51.08;;;27.65;;
48665;SDS011;34452;50.796;4.994;2023-05-02T03:13:50;53.28;;;28.80;;
48665;SDS011;34452;50.796;4.994;2023-05-02T03:19:02;46.17;;;26.02;;
48665;SDS011;34452;50.796;4.994;2023-05-02T03:23:57;51.97;;;27.25;;
48665;SDS011;34452;50.796;4.994;2023-05-02T03:26:24;47.80;;;27.25;;
48665;SDS011;34452;50.796;4.994;2023-05-02T03:28:51;49.00;;;27.10;;
48665;SDS011;34452;50.796;4.994;2023-05-02T03:31:17;51.42;;;30.73;;
48665;SDS011;34452;50.796;4.994;2023-05-02T03:33:43;54.63;;;28.58;;
48665;SDS011;34452;50.796;4.994;2023-05-02T03:36:09;57.08;;;30.73;;
48665;SDS011;34452;50.796;4.994;2023-05-02T03:38:35;48.50;;;28.63;;
48665;SDS011;34452;50.796;4.994;2023-05-02T03:41:01;51.08;;;30.17;;
48665;SDS011;34452;50.796;4.994;2023-05-02T03:43:28;53.80;;;30.45;;
48665;SDS011;34452;50.796;4.994;2023-05-02T03:48:20;47.55;;;28.27;;
48665;SDS011;34452;50.796;4.994;2023-05-02T03:50:46;45.97;;;26.70;;
48665;SDS011;34452;50.796;4.994;2023-05-02T03:53:12;59.55;;;30.80;;
48665;SDS011;34452;50.796;4.994;2023-05-02T03:55:39;52.72;;;28.80;;
48665;SDS011;34452;50.796;4.994;2023-05-02T03:58:05;49.10;;;28.00;;
48665;SDS011;34452;50.796;4.994;2023-05-02T04:00:31;51.83;;;27.55;;
48665;SDS011;34452;50.796;4.994;2023-05-02T04:02:59;48.67;;;27.48;;
48665;SDS011;34452;50.796;4.994;2023-05-02T04:05:25;42.03;;;23.65;;
48665;SDS011;34452;50.796;4.994;2023-05-02T04:07:51;77.18;;;29.20;;
48665;SDS011;34452;50.796;4.994;2023-05-02T04:10:17;41.95;;;22.85;;
48665;SDS011;34452;50.796;4.994;2023-05-02T04:12:43;46.58;;;26.08;;
48665;SDS011;34452;50.796;4.994;2023-05-02T04:15:09;42.20;;;23.33;;
48665;SDS011;34452;50.796;4.994;2023-05-02T04:17:35;41.85;;;23.20;;
48665;SDS011;34452;50.796;4.994;2023-05-02T04:20:01;39.00;;;23.70;;
48665;SDS011;34452;50.796;4.994;2023-05-02T04:22:28;49.22;;;24.58;;
48665;SDS011;34452;50.796;4.994;2023-05-02T04:24:54;72.03;;;26.63;;
48665;SDS011;34452;50.796;4.994;2023-05-02T04:27:20;48.88;;;24.52;;
48665;SDS011;34452;50.796;4.994;2023-05-02T04:29:47;55.40;;;26.93;;
48665;SDS011;34452;50.796;4.994;2023-05-02T04:32:14;47.15;;;25.92;;
48665;SDS011;34452;50.796;4.994;2023-05-02T04:34:40;44.17;;;25.27;;
48665;SDS011;34452;50.796;4.994;2023-05-02T04:37:06;42.40;;;23.48;;
48665;SDS011;34452;50.796;4.994;2023-05-02T04:39:32;46.33;;;24.83;;
48665;SDS011;34452;50.796;4.994;2023-05-02T04:41:58;43.33;;;24.50;;
48665;SDS011;34452;50.796;4.994;2023-05-02T04:44:24;42.95;;;24.13;;
48665;SDS011;34452;50.796;4.994;2023-05-02T04:46:50;43.53;;;24.63;;
48665;SDS011;34452;50.796;4.994;2023-05-02T04:49:16;40.07;;;23.30;;
48665;SDS011;34452;50.796;4.994;2023-05-02T04:51:42;41.00;;;23.67;;
48665;SDS011;34452;50.796;4.994;2023-05-02T04:54:08;39.05;;;23.58;;
48665;SDS011;34452;50.796;4.994;2023-05-02T04:56:34;48.88;;;24.00;;
48665;SDS011;34452;50.796;4.994;2023-05-02T04:59:00;38.47;;;21.80;;
48665;SDS011;34452;50.796;4.994;2023-05-02T05:01:26;42.30;;;24.63;;
48665;SDS011;34452;50.796;4.994;2023-05-02T05:03:52;41.28;;;23.90;;
48665;SDS011;34452;50.796;4.994;2023-05-02T05:06:18;52.83;;;26.80;;
48665;SDS011;34452;50.796;4.994;2023-05-02T05:08:44;44.97;;;24.13;;
48665;SDS011;34452;50.796;4.994;2023-05-02T05:11:10;44.15;;;26.27;;
48665;SDS011;34452;50.796;4.994;2023-05-02T05:13:36;41.45;;;25.27;;
48665;SDS011;34452;50.796;4.994;2023-05-02T05:16:02;54.65;;;28.75;;
48665;SDS011;34452;50.796;4.994;2023-05-02T05:18:28;48.35;;;27.92;;
48665;SDS011;34452;50.796;4.994;2023-05-02T05:23:20;47.17;;;27.67;;
48665;SDS011;34452;50.796;4.994;2023-05-02T05:25:46;56.85;;;31.52;;
48665;SDS011;34452;50.796;4.994;2023-05-02T05:28:12;49.17;;;30.38;;
48665;SDS011;34452;50.796;4.994;2023-05-02T05:30:38;47.58;;;28.40;;
48665;SDS011;34452;50.796;4.994;2023-05-02T05:33:03;47.20;;;28.00;;
48665;SDS011;34452;50.796;4.994;2023-05-02T05:35:29;53.67;;;29.95;;
48665;SDS011;34452;50.796;4.994;2023-05-02T05:37:56;43.30;;;27.73;;
48665;SDS011;34452;50.796;4.994;2023-05-02T05:40:22;49.78;;;28.88;;
48665;SDS011;34452;50.796;4.994;2023-05-02T05:42:48;49.93;;;30.00;;
48665;SDS011;34452;50.796;4.994;2023-05-02T05:45:14;48.47;;;29.00;;
48665;SDS011;34452;50.796;4.994;2023-05-02T05:47:41;53.13;;;30.17;;
48665;SDS011;34452;50.796;4.994;2023-05-02T05:50:07;47.20;;;27.83;;
48665;SDS011;34452;50.796;4.994;2023-05-02T05:52:33;50.10;;;30.25;;
48665;SDS011;34452;50.796;4.994;2023-05-02T05:54:59;56.45;;;31.55;;
48665;SDS011;34452;50.796;4.994;2023-05-02T05:57:25;49.25;;;29.33;;
48665;SDS011;34452;50.796;4.994;2023-05-02T05:59:51;42.47;;;27.83;;
48665;SDS011;34452;50.796;4.994;2023-05-02T06:02:17;42.50;;;26.95;;
48665;SDS011;34452;50.796;4.994;2023-05-02T06:04:43;46.20;;;27.63;;
48665;SDS011;34452;50.796;4.994;2023-05-02T06:07:10;44.63;;;28.45;;
48665;SDS011;34452;50.796;4.994;2023-05-02T06:09:36;56.90;;;29.10;;
48665;SDS011;34452;50.796;4.994;2023-05-02T06:12:02;51.85;;;25.70;;
48665;SDS011;34452;50.796;4.994;2023-05-02T06:14:28;43.08;;;26.05;;
48665;SDS011;34452;50.796;4.994;2023-05-02T06:16:53;40.65;;;25.08;;
48665;SDS011;34452;50.796;4.994;2023-05-02T06:19:19;44.92;;;25.45;;
48665;SDS011;34452;50.796;4.994;2023-05-02T06:21:45;44.90;;;26.48;;
48665;SDS011;34452;50.796;4.994;2023-05-02T06:24:10;48.78;;;25.73;;
48665;SDS011;34452;50.796;4.994;2023-05-02T06:26:36;51.20;;;28.05;;
48665;SDS011;34452;50.796;4.994;2023-05-02T06:29:02;43.03;;;25.58;;
48665;SDS011;34452;50.796;4.994;2023-05-02T06:31:28;46.13;;;28.25;;
48665;SDS011;34452;50.796;4.994;2023-05-02T06:33:53;49.37;;;26.60;;
48665;SDS011;34452;50.796;4.994;2023-05-02T06:36:19;43.67;;;24.55;;
48665;SDS011;34452;50.796;4.994;2023-05-02T06:38:45;51.97;;;26.97;;
48665;SDS011;34452;50.796;4.994;2023-05-02T06:41:12;39.20;;;23.75;;
48665;SDS011;34452;50.796;4.994;2023-05-02T06:43:39;36.72;;;23.10;;
48665;SDS011;34452;50.796;4.994;2023-05-02T06:46:05;32.08;;;19.35;;
48665;SDS011;34452;50.796;4.994;2023-05-02T06:48:32;26.50;;;16.27;;
48665;SDS011;34452;50.796;4.994;2023-05-02T06:51:00;31.00;;;16.98;;
48665;SDS011;34452;50.796;4.994;2023-05-02T06:53:28;29.38;;;15.93;;
48665;SDS011;34452;50.796;4.994;2023-05-02T06:58:20;18.42;;;10.77;;
48665;SDS011;34452;50.796;4.994;2023-05-02T07:00:46;14.38;;;9.43;;
48665;SDS011;34452;50.796;4.994;2023-05-02T07:03:12;20.23;;;10.32;;
48665;SDS011;34452;50.796;4.994;2023-05-02T07:05:38;17.45;;;9.20;;
48665;SDS011;34452;50.796;4.994;2023-05-02T07:08:05;15.80;;;9.18;;
48665;SDS011;34452;50.796;4.994;2023-05-02T07:10:31;25.67;;;13.88;;
48665;SDS011;34452;50.796;4.994;2023-05-02T07:12:57;28.35;;;14.77;;
48665;SDS011;34452;50.796;4.994;2023-05-02T07:15:22;34.63;;;16.17;;
48665;SDS011;34452;50.796;4.994;2023-05-02T07:17:48;21.05;;;12.80;;
48665;SDS011;34452;50.796;4.994;2023-05-02T07:20:14;21.85;;;11.73;;
48665;SDS011;34452;50.796;4.994;2023-05-02T07:22:40;24.08;;;12.25;;
48665;SDS011;34452;50.796;4.994;2023-05-02T07:25:07;26.30;;;11.35;;
48665;SDS011;34452;50.796;4.994;2023-05-02T07:27:33;13.73;;;8.68;;
48665;SDS011;34452;50.796;4.994;2023-05-02T07:29:59;11.82;;;6.93;;
48665;SDS011;34452;50.796;4.994;2023-05-02T07:32:25;15.15;;;6.95;;
48665;SDS011;34452;50.796;4.994;2023-05-02T07:34:51;14.48;;;6.00;;
48665;SDS011;34452;50.796;4.994;2023-05-02T07:40:14;10.45;;;5.82;;
48665;SDS011;34452;50.796;4.994;2023-05-02T07:42:39;13.23;;;5.80;;
48665;SDS011;34452;50.796;4.994;2023-05-02T07:45:06;10.68;;;5.78;;
48665;SDS011;34452;50.796;4.994;2023-05-02T07:47:32;8.63;;;5.55;;
48665;SDS011;34452;50.796;4.994;2023-05-02T07:49:58;12.65;;;5.55;;
48665;SDS011;34452;50.796;4.994;2023-05-02T07:52:24;12.02;;;6.35;;
48665;SDS011;34452;50.796;4.994;2023-05-02T07:54:50;13.80;;;5.50;;
48665;SDS011;34452;50.796;4.994;2023-05-02T07:57:16;10.32;;;5.90;;
48665;SDS011;34452;50.796;4.994;2023-05-02T08:02:08;10.48;;;5.65;;
48665;SDS011;34452;50.796;4.994;2023-05-02T08:04:35;12.45;;;5.85;;
48665;SDS011;34452;50.796;4.994;2023-05-02T08:07:01;9.02;;;5.75;;
48665;SDS011;34452;50.796;4.994;2023-05-02T08:09:27;11.70;;;5.47;;
48665;SDS011;34452;50.796;4.994;2023-05-02T08:11:53;7.35;;;4.82;;
48665;SDS011;34452;50.796;4.994;2023-05-02T08:14:19;14.40;;;6.40;;
48665;SDS011;34452;50.796;4.994;2023-05-02T08:16:44;13.40;;;5.40;;
48665;SDS011;34452;50.796;4.994;2023-05-02T08:19:10;11.20;;;5.27;;
48665;SDS011;34452;50.796;4.994;2023-05-02T08:21:36;19.15;;;5.70;;
48665;SDS011;34452;50.796;4.994;2023-05-02T08:24:02;12.85;;;6.15;;
48665;SDS011;34452;50.796;4.994;2023-05-02T08:26:28;13.77;;;5.85;;
48665;SDS011;34452;50.796;4.994;2023-05-02T08:28:54;15.85;;;6.80;;
48665;SDS011;34452;50.796;4.994;2023-05-02T08:31:20;20.92;;;6.00;;
48665;SDS011;34452;50.796;4.994;2023-05-02T08:33:46;9.25;;;5.28;;
48665;SDS011;34452;50.796;4.994;2023-05-02T08:36:12;11.23;;;4.97;;
48665;SDS011;34452;50.796;4.994;2023-05-02T08:38:40;9.35;;;4.85;;
48665;SDS011;34452;50.796;4.994;2023-05-02T08:43:49;10.73;;;4.80;;
48665;SDS011;34452;50.796;4.994;2023-05-02T08:46:15;9.40;;;4.75;;
48665;SDS011;34452;50.796;4.994;2023-05-02T08:48:42;10.82;;;4.00;;
48665;SDS011;34452;50.796;4.994;2023-05-02T08:51:10;11.73;;;4.53;;
48665;SDS011;34452;50.796;4.994;2023-05-02T08:53:38;11.68;;;4.35;;
48665;SDS011;34452;50.796;4.994;2023-05-02T08:56:06;12.95;;;4.53;;
48665;SDS011;34452;50.796;4.994;2023-05-02T08:58:34;10.02;;;4.35;;
48665;SDS011;34452;50.796;4.994;2023-05-02T09:01:01;8.07;;;3.70;;
48665;SDS011;34452;50.796;4.994;2023-05-02T09:03:29;9.18;;;3.90;;
48665;SDS011;34452;50.796;4.994;2023-05-02T09:06:02;13.50;;;3.17;;
48665;SDS011;34452;50.796;4.994;2023-05-02T09:08:30;11.40;;;3.67;;
48665;SDS011;34452;50.796;4.994;2023-05-02T09:10:56;6.50;;;2.88;;
48665;SDS011;34452;50.796;4.994;2023-05-02T09:18:47;9.43;;;2.97;;
48665;SDS011;34452;50.796;4.994;2023-05-02T09:21:16;9.98;;;3.28;;
48665;SDS011;34452;50.796;4.994;2023-05-02T09:23:44;11.95;;;3.15;;
48665;SDS011;34452;50.796;4.994;2023-05-02T09:28:53;9.23;;;3.00;;
48665;SDS011;34452;50.796;4.994;2023-05-02T09:31:21;8.65;;;3.28;;
48665;SDS011;34452;50.796;4.994;2023-05-02T09:33:50;10.88;;;3.05;;
48665;SDS011;34452;50.796;4.994;2023-05-02T09:36:17;4.57;;;2.80;;
48665;SDS011;34452;50.796;4.994;2023-05-02T09:38:45;10.32;;;3.10;;
48665;SDS011;34452;50.796;4.994;2023-05-02T09:41:12;10.02;;;3.53;;
48665;SDS011;34452;50.796;4.994;2023-05-02T09:43:38;9.55;;;2.88;;
48665;SDS011;34452;50.796;4.994;2023-05-02T09:46:05;9.13;;;3.10;;
48665;SDS011;34452;50.796;4.994;2023-05-02T09:48:50;11.10;;;3.50;;
48665;SDS011;34452;50.796;4.994;2023-05-02T09:51:17;8.13;;;2.88;;
48665;SDS011;34452;50.796;4.994;2023-05-02T09:53:44;7.93;;;2.92;;
48665;SDS011;34452;50.796;4.994;2023-05-02T09:56:10;10.77;;;3.33;;
48665;SDS011;34452;50.796;4.994;2023-05-02T09:58:36;6.70;;;2.97;;
48665;SDS011;34452;50.796;4.994;2023-05-02T10:01:02;6.72;;;2.58;;
48665;SDS011;34452;50.796;4.994;2023-05-02T10:03:28;9.82;;;2.95;;
48665;SDS011;34452;50.796;4.994;2023-05-02T10:05:56;6.72;;;2.63;;
48665;SDS011;34452;50.796;4.994;2023-05-02T10:08:24;9.15;;;2.75;;
48665;SDS011;34452;50.796;4.994;2023-05-02T10:13:20;9.13;;;3.00;;
48665;SDS011;34452;50.796;4.994;2023-05-02T10:15:49;9.63;;;3.47;;
48665;SDS011;34452;50.796;4.994;2023-05-02T10:18:25;7.63;;;2.40;;
48665;SDS011;34452;50.796;4.994;2023-05-02T10:20:55;7.13;;;2.65;;
48665;SDS011;34452;50.796;4.994;2023-05-02T10:26:08;7.57;;;2.28;;
48665;SDS011;34452;50.796;4.994;2023-05-02T10:28:39;5.00;;;2.17;;
48665;SDS011;34452;50.796;4.994;2023-05-02T10:31:05;14.32;;;3.60;;
48665;SDS011;34452;50.796;4.994;2023-05-02T10:33:35;8.88;;;2.75;;
48665;SDS011;34452;50.796;4.994;2023-05-02T10:36:02;15.13;;;3.15;;
48665;SDS011;34452;50.796;4.994;2023-05-02T10:38:28;7.45;;;2.33;;
48665;SDS011;34452;50.796;4.994;2023-05-02T10:40:56;9.48;;;3.08;;
48665;SDS011;34452;50.796;4.994;2023-05-02T10:43:26;8.25;;;2.22;;
48665;SDS011;34452;50.796;4.994;2023-05-02T10:45:56;10.23;;;2.88;;
48665;SDS011;34452;50.796;4.994;2023-05-02T10:48:23;10.95;;;2.75;;
48665;SDS011;34452;50.796;4.994;2023-05-02T10:50:50;8.60;;;2.28;;
48665;SDS011;34452;50.796;4.994;2023-05-02T10:53:32;5.57;;;2.15;;
48665;SDS011;34452;50.796;4.994;2023-05-02T10:56:15;8.95;;;3.00;;
48665;SDS011;34452;50.796;4.994;2023-05-02T10:58:46;8.98;;;2.42;;
48665;SDS011;34452;50.796;4.994;2023-05-02T11:06:34;8.27;;;2.92;;
48665;SDS011;34452;50.796;4.994;2023-05-02T11:11:40;6.25;;;2.60;;
48665;SDS011;34452;50.796;4.994;2023-05-02T11:14:07;7.38;;;2.50;;
48665;SDS011;34452;50.796;4.994;2023-05-02T11:22:39;8.57;;;2.85;;
48665;SDS011;34452;50.796;4.994;2023-05-02T11:25:19;7.90;;;2.20;;
48665;SDS011;34452;50.796;4.994;2023-05-02T11:27:54;9.23;;;2.58;;
48665;SDS011;34452;50.796;4.994;2023-05-02T11:35:29;7.63;;;2.35;;
48665;SDS011;34452;50.796;4.994;2023-05-02T11:37:56;7.13;;;2.42;;
48665;SDS011;34452;50.796;4.994;2023-05-02T11:40:24;9.50;;;2.47;;
48665;SDS011;34452;50.796;4.994;2023-05-02T11:42:51;9.30;;;2.75;;
48665;SDS011;34452;50.796;4.994;2023-05-02T11:47:43;5.38;;;1.90;;
48665;SDS011;34452;50.796;4.994;2023-05-02T11:50:10;8.60;;;2.60;;
48665;SDS011;34452;50.796;4.994;2023-05-02T11:52:38;11.18;;;3.10;;
48665;SDS011;34452;50.796;4.994;2023-05-02T11:55:05;13.57;;;2.30;;
48665;SDS011;34452;50.796;4.994;2023-05-02T11:57:33;7.90;;;2.22;;
48665;SDS011;34452;50.796;4.994;2023-05-02T11:59:59;11.77;;;2.42;;
48665;SDS011;34452;50.796;4.994;2023-05-02T12:05:09;9.90;;;2.72;;
48665;SDS011;34452;50.796;4.994;2023-05-02T12:07:37;7.70;;;2.55;;
48665;SDS011;34452;50.796;4.994;2023-05-02T12:10:05;8.63;;;2.65;;
48665;SDS011;34452;50.796;4.994;2023-05-02T12:12:32;7.47;;;2.00;;
48665;SDS011;34452;50.796;4.994;2023-05-02T12:17:45;11.15;;;3.45;;
48665;SDS011;34452;50.796;4.994;2023-05-02T12:20:16;12.45;;;2.58;;
48665;SDS011;34452;50.796;4.994;2023-05-02T12:22:42;5.07;;;1.92;;
48665;SDS011;34452;50.796;4.994;2023-05-02T12:25:08;14.13;;;3.25;;
48665;SDS011;34452;50.796;4.994;2023-05-02T12:27:34;9.35;;;2.60;;
48665;SDS011;34452;50.796;4.994;2023-05-02T12:30:00;7.15;;;2.22;;
48665;SDS011;34452;50.796;4.994;2023-05-02T12:32:27;5.10;;;2.05;;
48665;SDS011;34452;50.796;4.994;2023-05-02T12:34:54;7.38;;;2.53;;
48665;SDS011;34452;50.796;4.994;2023-05-02T12:37:21;12.85;;;3.10;;
48665;SDS011;34452;50.796;4.994;2023-05-02T12:39:49;5.88;;;2.42;;
48665;SDS011;34452;50.796;4.994;2023-05-02T12:42:16;8.93;;;2.85;;
48665;SDS011;34452;50.796;4.994;2023-05-02T12:44:44;10.23;;;2.47;;
48665;SDS011;34452;50.796;4.994;2023-05-02T12:47:12;8.75;;;2.53;;
48665;SDS011;34452;50.796;4.994;2023-05-02T12:49:52;5.90;;;2.63;;
48665;SDS011;34452;50.796;4.994;2023-05-02T12:52:45;9.02;;;2.45;;
48665;SDS011;34452;50.796;4.994;2023-05-02T12:55:39;9.60;;;2.75;;
48665;SDS011;34452;50.796;4.994;2023-05-02T13:00:32;6.20;;;2.17;;
48665;SDS011;34452;50.796;4.994;2023-05-02T13:03:03;12.25;;;3.00;;
48665;SDS011;34452;50.796;4.994;2023-05-02T13:05:29;12.50;;;3.60;;
48665;SDS011;34452;50.796;4.994;2023-05-02T13:07:55;16.02;;;3.45;;
48665;SDS011;34452;50.796;4.994;2023-05-02T13:10:22;6.35;;;2.55;;
48665;SDS011;34452;50.796;4.994;2023-05-02T13:12:50;8.30;;;2.50;;
48665;SDS011;34452;50.796;4.994;2023-05-02T13:15:16;10.15;;;2.92;;
48665;SDS011;34452;50.796;4.994;2023-05-02T13:17:43;11.57;;;2.88;;
48665;SDS011;34452;50.796;4.994;2023-05-02T13:20:09;9.60;;;2.90;;
48665;SDS011;34452;50.796;4.994;2023-05-02T13:22:35;10.13;;;2.67;;
48665;SDS011;34452;50.796;4.994;2023-05-02T13:25:02;11.50;;;2.75;;
48665;SDS011;34452;50.796;4.994;2023-05-02T13:27:28;6.13;;;2.45;;
48665;SDS011;34452;50.796;4.994;2023-05-02T13:29:54;9.35;;;2.38;;
48665;SDS011;34452;50.796;4.994;2023-05-02T13:32:20;6.68;;;2.20;;
48665;SDS011;34452;50.796;4.994;2023-05-02T13:34:46;9.45;;;2.72;;
48665;SDS011;34452;50.796;4.994;2023-05-02T13:37:12;6.30;;;3.05;;
48665;SDS011;34452;50.796;4.994;2023-05-02T13:39:38;8.10;;;2.95;;
48665;SDS011;34452;50.796;4.994;2023-05-02T13:42:04;12.32;;;2.85;;
48665;SDS011;34452;50.796;4.994;2023-05-02T13:44:30;12.38;;;3.08;;
48665;SDS011;34452;50.796;4.994;2023-05-02T13:46:56;11.90;;;3.20;;
48665;SDS011;34452;50.796;4.994;2023-05-02T13:49:22;7.50;;;2.70;;
48665;SDS011;34452;50.796;4.994;2023-05-02T13:51:48;9.88;;;3.08;;
48665;SDS011;34452;50.796;4.994;2023-05-02T13:54:14;13.18;;;3.30;;
48665;SDS011;34452;50.796;4.994;2023-05-02T13:56:40;13.68;;;3.35;;
48665;SDS011;34452;50.796;4.994;2023-05-02T13:59:06;8.02;;;2.33;;
48665;SDS011;34452;50.796;4.994;2023-05-02T14:01:33;7.22;;;2.45;;
48665;SDS011;34452;50.796;4.994;2023-05-02T14:03:59;11.60;;;2.70;;
48665;SDS011;34452;50.796;4.994;2023-05-02T14:06:30;5.68;;;2.50;;
48665;SDS011;34452;50.796;4.994;2023-05-02T14:11:22;9.23;;;2.50;;
48665;SDS011;34452;50.796;4.994;2023-05-02T14:13:48;6.68;;;2.72;;
48665;SDS011;34452;50.796;4.994;2023-05-02T14:16:14;9.38;;;3.15;;
48665;SDS011;34452;50.796;4.994;2023-05-02T14:18:39;8.70;;;3.78;;
48665;SDS011;34452;50.796;4.994;2023-05-02T14:21:05;10.13;;;3.25;;
48665;SDS011;34452;50.796;4.994;2023-05-02T14:23:32;7.50;;;2.67;;
48665;SDS011;34452;50.796;4.994;2023-05-02T14:28:23;13.88;;;3.50;;
48665;SDS011;34452;50.796;4.994;2023-05-02T14:30:51;7.53;;;3.10;;
48665;SDS011;34452;50.796;4.994;2023-05-02T14:33:16;11.43;;;2.85;;
48665;SDS011;34452;50.796;4.994;2023-05-02T14:35:42;9.25;;;3.13;;
48665;SDS011;34452;50.796;4.994;2023-05-02T14:38:08;8.88;;;2.80;;
48665;SDS011;34452;50.796;4.994;2023-05-02T14:40:34;6.68;;;2.80;;
48665;SDS011;34452;50.796;4.994;2023-05-02T14:42:59;8.23;;;3.42;;
48665;SDS011;34452;50.796;4.994;2023-05-02T14:45:25;15.45;;;3.53;;
48665;SDS011;34452;50.796;4.994;2023-05-02T14:47:51;7.75;;;2.83;;
48665;SDS011;34452;50.796;4.994;2023-05-02T14:50:17;7.45;;;2.92;;
48665;SDS011;34452;50.796;4.994;2023-05-02T14:52:43;9.85;;;3.30;;
48665;SDS011;34452;50.796;4.994;2023-05-02T14:55:24;9.73;;;3.00;;
48665;SDS011;34452;50.796;4.994;2023-05-02T14:57:49;9.13;;;3.45;;
48665;SDS011;34452;50.796;4.994;2023-05-02T15:00:16;6.95;;;3.28;;
48665;SDS011;34452;50.796;4.994;2023-05-02T15:02:42;7.43;;;2.85;;
48665;SDS011;34452;50.796;4.994;2023-05-02T15:05:07;5.93;;;2.70;;
48665;SDS011;34452;50.796;4.994;2023-05-02T15:07:36;12.25;;;3.80;;
48665;SDS011;34452;50.796;4.994;2023-05-02T15:10:02;11.75;;;3.65;;
48665;SDS011;34452;50.796;4.994;2023-05-02T15:12:28;8.40;;;3.15;;
48665;SDS011;34452;50.796;4.994;2023-05-02T15:14:54;10.50;;;3.05;;
48665;SDS011;34452;50.796;4.994;2023-05-02T15:17:19;8.52;;;3.00;;
48665;SDS011;34452;50.796;4.994;2023-05-02T15:19:45;17.23;;;3.45;;
48665;SDS011;34452;50.796;4.994;2023-05-02T15:22:11;5.93;;;2.67;;
48665;SDS011;34452;50.796;4.994;2023-05-02T15:24:37;9.57;;;2.75;;
48665;SDS011;34452;50.796;4.994;2023-05-02T15:27:02;7.25;;;3.20;;
48665;SDS011;34452;50.796;4.994;2023-05-02T15:29:28;11.95;;;3.03;;
48665;SDS011;34452;50.796;4.994;2023-05-02T15:31:54;9.70;;;3.00;;
48665;SDS011;34452;50.796;4.994;2023-05-02T15:34:20;9.57;;;3.42;;
48665;SDS011;34452;50.796;4.994;2023-05-02T15:36:45;10.18;;;3.45;;
48665;SDS011;34452;50.796;4.994;2023-05-02T15:39:11;8.77;;;2.95;;
48665;SDS011;34452;50.796;4.994;2023-05-02T15:41:37;6.88;;;2.88;;
48665;SDS011;34452;50.796;4.994;2023-05-02T15:44:03;9.43;;;3.03;;
48665;SDS011;34452;50.796;4.994;2023-05-02T15:46:29;10.07;;;3.17;;
48665;SDS011;34452;50.796;4.994;2023-05-02T15:48:54;6.32;;;3.08;;
48665;SDS011;34452;50.796;4.994;2023-05-02T15:51:20;8.23;;;3.28;;
48665;SDS011;34452;50.796;4.994;2023-05-02T15:53:46;7.70;;;3.40;;
48665;SDS011;34452;50.796;4.994;2023-05-02T15:56:13;9.20;;;3.13;;
48665;SDS011;34452;50.796;4.994;2023-05-02T15:58:40;5.63;;;2.70;;
48665;SDS011;34452;50.796;4.994;2023-05-02T16:01:05;8.38;;;3.50;;
48665;SDS011;34452;50.796;4.994;2023-05-02T16:03:32;11.10;;;3.33;;
48665;SDS011;34452;50.796;4.994;2023-05-02T16:05:59;9.90;;;2.90;;
48665;SDS011;34452;50.796;4.994;2023-05-02T16:08:25;9.52;;;2.90;;